Time;durP1;ratioP1;P1;durP2;ratioP2;P2;SDS_P1;SDS_P2;PMS_P1;PMS_P2;Temp;Humidity;BMP_temperature;BMP_pressure;BME280_temperature;BME280_humidity;BME280_pressure;Samples;Min_cycle;Max_cycle;Signal;HPM_P1;HPM_P2
2022/10/22 00:01:31;;;;;;;;;;;;;;;21.31;28.19;98824.03;5041093;28;1443;-79
2022/10/22 00:07:31;;;;;;;;;;;;;;;20.85;28.75;98815.22;5057653;28;843;-79
2022/10/22 00:09:57;;;;;;;;;;;;;;;20.88;28.51;98811.53;5074129;28;802;-79
2022/10/22 00:12:22;;;;;;;;;;;;;;;20.98;28.64;98804.97;5054698;28;1390;-79
2022/10/22 00:14:48;;;;;;;;;;;;;;;21.27;28.16;98805.44;5058811;28;873;-79
2022/10/22 00:17:13;;;;;;;;;;;;;;;21.41;27.62;98804.50;5058157;28;842;-79
2022/10/22 00:19:39;;;;;;;;;;;;;;;21.12;28.13;98801.97;5056922;28;1690;-80
2022/10/22 00:22:04;;;;;;;;;;;;;;;20.88;28.72;98800.22;5063874;28;1490;-79
2022/10/22 00:24:30;;;;;;;;;;;;;;;20.80;28.49;98788.22;5078658;28;1961;-79
2022/10/22 00:26:56;;;;;;;;;;;;;;;21.04;28.37;98794.81;5078342;28;730;-79
2022/10/22 00:29:21;;;;;;;;;;;;;;;21.22;28.08;98780.44;5078554;28;864;-79
2022/10/22 00:31:48;;;;;;;;;;;;;;;21.53;27.63;98784.09;5056553;28;1381;-80
2022/10/22 00:34:18;;;;;;;;;;;;;;;21.12;28.13;98776.50;5058060;28;766;-79
2022/10/22 00:36:44;;;;;;;;;;;;;;;20.85;28.46;98772.81;5057399;28;981;-79
2022/10/22 00:39:10;;;;;;;;;;;;;;;21.12;28.23;98768.03;5057556;28;1239;-80
2022/10/22 00:41:35;;;;;;;;;;;;;;;21.38;27.73;98765.69;5041004;28;1564;-79
2022/10/22 00:44:03;;;;;;;;;;;;;;;21.64;27.49;98762.09;5074384;28;1922;-79
2022/10/22 00:50:04;;;;;;;;;;;;;;;20.67;28.88;98756.81;5062254;28;1484;-79
2022/10/22 00:52:29;;;;;;;;;;;;;;;20.83;28.88;98758.25;5060473;28;1292;-79
2022/10/22 00:54:55;;;;;;;;;;;;;;;21.20;28.28;98749.72;5076849;28;867;-79
2022/10/22 00:57:20;;;;;;;;;;;;;;;21.42;27.63;98755.94;5060203;28;838;-79
2022/10/22 00:59:46;;;;;;;;;;;;;;;21.07;28.31;98757.16;5055792;28;1502;-79
2022/10/22 01:02:11;;;;;;;;;;;;;;;20.95;28.43;98749.25;5056099;28;1495;-79
2022/10/22 01:04:37;;;;;;;;;;;;;;;21.08;28.30;98753.09;5039985;28;1973;-79
2022/10/22 01:07:02;;;;;;;;;;;;;;;21.38;28.07;98740.22;5056690;28;771;-80
2022/10/22 01:13:02;;;;;;;;;;;;;;;21.07;28.30;98740.19;5036780;28;640;-79
2022/10/22 01:15:30;;;;;;;;;;;;;;;20.96;28.14;98736.69;5036335;28;699;-79
2022/10/22 01:18:13;;;;;;;;;;;;;;;21.03;27.98;98733.78;5019755;28;912;-80
2022/10/22 01:20:57;;;;;;;;;;;;;;;21.31;27.99;98726.97;5043802;28;1462;-80
2022/10/22 01:23:35;;;;;;;;;;;;;;;21.45;27.65;98725.94;5056337;28;1980;-79
2022/10/22 01:26:18;;;;;;;;;;;;;;;20.91;28.57;98731.50;5039530;28;898;-80
2022/10/22 01:28:57;;;;;;;;;;;;;;;20.80;28.62;98732.44;5039723;28;1311;-79
2022/10/22 01:34:59;;;;;;;;;;;;;;;21.07;28.57;98723.22;5036017;28;676;-79
2022/10/22 01:37:25;;;;;;;;;;;;;;;21.46;27.60;98717.06;5035334;28;1209;-79
2022/10/22 01:39:50;;;;;;;;;;;;;;;20.92;28.36;98721.78;5077173;28;743;-80
2022/10/22 01:42:16;;;;;;;;;;;;;;;20.85;28.40;98717.03;5076595;28;1065;-80
2022/10/22 01:44:41;;;;;;;;;;;;;;;20.89;28.54;98711.34;5060358;28;1189;-80
2022/10/22 01:47:22;;;;;;;;;;;;;;;21.04;28.32;98712.75;5077514;28;1318;-80
2022/10/22 01:50:10;;;;;;;;;;;;;;;21.34;27.71;98697.81;5076767;28;738;-79
2022/10/22 01:52:47;;;;;;;;;;;;;;;21.55;27.27;98705.19;5060166;28;1118;-79
2022/10/22 01:55:13;;;;;;;;;;;;;;;21.07;28.18;98711.91;5078097;28;726;-79
2022/10/22 02:01:14;;;;;;;;;;;;;;;20.95;28.67;98716.09;5077937;28;624;-79
2022/10/22 02:03:51;;;;;;;;;;;;;;;21.36;27.61;98717.22;5076103;28;1901;-79
2022/10/22 02:06:17;;;;;;;;;;;;;;;21.71;27.26;98715.84;5076352;28;758;-79
2022/10/22 02:08:43;;;;;;;;;;;;;;;21.05;28.19;98718.00;5076008;28;1231;-80
2022/10/22 02:11:08;;;;;;;;;;;;;;;20.68;28.64;98716.03;5076772;28;747;-80
2022/10/22 02:13:36;;;;;;;;;;;;;;;20.59;28.77;98721.38;5055747;28;1546;-79
2022/10/22 02:16:02;;;;;;;;;;;;;;;21.18;28.29;98715.38;5072991;28;801;-79
2022/10/22 02:18:29;;;;;;;;;;;;;;;21.24;27.93;98718.53;5056251;28;767;-80
2022/10/22 02:20:54;;;;;;;;;;;;;;;21.44;27.51;98713.03;5056475;28;806;-79
2022/10/22 02:23:20;;;;;;;;;;;;;;;21.05;28.06;98725.69;5072399;28;1914;-79
2022/10/22 02:25:46;;;;;;;;;;;;;;;20.85;28.47;98721.88;5056154;28;866;-79
2022/10/22 02:28:19;;;;;;;;;;;;;;;20.79;28.43;98713.88;5065678;28;1390;-80
2022/10/22 02:30:46;;;;;;;;;;;;;;;21.36;27.58;98705.88;5055883;28;818;-79
2022/10/22 02:33:12;;;;;;;;;;;;;;;21.41;27.54;98708.25;5073062;28;1171;-79
2022/10/22 02:35:37;;;;;;;;;;;;;;;21.11;27.77;98707.00;5056230;28;806;-79
2022/10/22 02:38:03;;;;;;;;;;;;;;;20.92;28.54;98716.13;5051382;28;979;-79
2022/10/22 02:40:29;;;;;;;;;;;;;;;20.79;28.40;98707.41;5068384;28;1137;-80
2022/10/22 02:42:54;;;;;;;;;;;;;;;20.84;28.56;98703.31;5036860;28;1922;-79
2022/10/22 02:45:20;;;;;;;;;;;;;;;21.33;27.63;98708.31;5034556;28;957;-80
2022/10/22 02:47:46;;;;;;;;;;;;;;;21.57;27.33;98706.38;5034694;28;885;-81
2022/10/22 02:50:11;;;;;;;;;;;;;;;21.04;27.86;98707.09;5001993;28;1167;-80
2022/10/22 02:52:37;;;;;;;;;;;;;;;20.89;28.66;98694.38;5018526;28;899;-79
2022/10/22 02:55:02;;;;;;;;;;;;;;;20.94;28.40;98697.53;5033601;28;1366;-80
2022/10/22 02:57:28;;;;;;;;;;;;;;;21.05;28.10;98697.38;5034593;28;924;-80
2022/10/22 02:59:53;;;;;;;;;;;;;;;21.24;28.11;98699.56;5034643;28;922;-80
2022/10/22 03:02:18;;;;;;;;;;;;;;;21.54;27.58;98689.41;5018215;28;755;-79
2022/10/22 03:04:44;;;;;;;;;;;;;;;21.08;28.32;98694.50;5034531;28;1965;-79
2022/10/22 03:07:10;;;;;;;;;;;;;;;21.00;28.12;98692.19;5034707;28;771;-80
2022/10/22 03:09:35;;;;;;;;;;;;;;;20.97;28.19;98701.53;5033769;28;1527;-80
2022/10/22 03:12:00;;;;;;;;;;;;;;;21.30;27.66;98697.88;5034570;28;842;-79
2022/10/22 03:14:26;;;;;;;;;;;;;;;21.36;27.64;98694.56;5034909;28;766;-79
2022/10/22 03:16:51;;;;;;;;;;;;;;;21.46;27.68;98682.28;5035413;28;925;-80
2022/10/22 03:19:17;;;;;;;;;;;;;;;21.08;28.12;98685.19;5051451;28;854;-79
2022/10/22 03:21:42;;;;;;;;;;;;;;;20.92;28.51;98687.84;5040691;28;821;-79
2022/10/22 03:24:12;;;;;;;;;;;;;;;21.16;28.08;98675.41;5043016;28;1973;-80
2022/10/22 03:26:38;;;;;;;;;;;;;;;21.19;27.98;98685.88;5038844;28;1553;-80
2022/10/22 03:29:03;;;;;;;;;;;;;;;21.40;27.73;98672.63;5039526;28;960;-79
2022/10/22 03:31:29;;;;;;;;;;;;;;;21.13;27.93;98670.56;5023448;28;1344;-79
2022/10/22 03:33:54;;;;;;;;;;;;;;;21.20;27.78;98678.97;5039719;28;735;-80
2022/10/22 03:36:19;;;;;;;;;;;;;;;20.90;28.32;98679.78;5040448;28;810;-79
2022/10/22 03:38:45;;;;;;;;;;;;;;;20.95;28.33;98692.66;5038734;28;1496;-79
2022/10/22 03:41:10;;;;;;;;;;;;;;;21.23;27.75;98680.94;5023159;28;1010;-80
2022/10/22 03:43:36;;;;;;;;;;;;;;;21.39;27.72;98676.72;5036610;28;1902;-80
2022/10/22 03:46:01;;;;;;;;;;;;;;;21.16;27.95;98675.41;5058999;28;703;-79
2022/10/22 03:48:27;;;;;;;;;;;;;;;20.77;28.62;98676.69;5058137;28;875;-79
2022/10/22 03:50:52;;;;;;;;;;;;;;;20.97;28.36;98681.72;5060038;28;884;-79
2022/10/22 03:53:18;;;;;;;;;;;;;;;20.74;28.88;98677.56;5058973;28;783;-80
2022/10/22 03:55:43;;;;;;;;;;;;;;;21.11;28.28;98670.22;5060061;28;696;-79
2022/10/22 03:58:08;;;;;;;;;;;;;;;21.29;27.67;98673.56;5060058;28;814;-79
2022/10/22 04:00:34;;;;;;;;;;;;;;;21.26;27.72;98671.63;5077673;28;1748;-79
2022/10/22 04:02:59;;;;;;;;;;;;;;;21.00;28.19;98666.72;5078694;28;1969;-79
2022/10/22 04:05:25;;;;;;;;;;;;;;;21.08;28.31;98668.22;5079835;28;742;-79
2022/10/22 04:07:50;;;;;;;;;;;;;;;21.01;28.48;98668.34;5087365;28;1256;-80
2022/10/22 04:10:16;;;;;;;;;;;;;;;21.29;28.03;98665.09;5068511;28;1224;-80
2022/10/22 04:12:41;;;;;;;;;;;;;;;21.47;27.61;98670.53;5089111;28;1266;-80
2022/10/22 04:15:07;;;;;;;;;;;;;;;21.35;27.73;98670.28;5086823;28;1350;-79
2022/10/22 04:17:33;;;;;;;;;;;;;;;21.18;28.13;98667.28;5089890;28;1263;-80
2022/10/22 04:19:59;;;;;;;;;;;;;;;20.79;28.74;98668.63;5068409;28;1268;-79
2022/10/22 04:22:24;;;;;;;;;;;;;;;20.77;28.64;98653.28;5044093;28;1981;-80
2022/10/22 04:24:50;;;;;;;;;;;;;;;21.06;28.27;98654.50;5065796;28;1172;-78
2022/10/22 04:27:15;;;;;;;;;;;;;;;21.20;28.01;98653.50;5049708;28;1233;-79
2022/10/22 04:29:40;;;;;;;;;;;;;;;21.20;27.88;98653.50;5054687;28;1446;-79
2022/10/22 04:32:06;;;;;;;;;;;;;;;20.91;28.40;98646.66;5076986;28;746;-79
2022/10/22 04:34:31;;;;;;;;;;;;;;;20.78;28.90;98655.72;5066958;28;1130;-79
2022/10/22 04:36:57;;;;;;;;;;;;;;;20.79;28.74;98650.84;5066192;28;1289;-79
2022/10/22 04:39:22;;;;;;;;;;;;;;;21.16;28.02;98647.09;5049041;28;1390;-79
2022/10/22 04:41:48;;;;;;;;;;;;;;;21.54;27.40;98661.09;5050594;28;1332;-79
2022/10/22 04:44:13;;;;;;;;;;;;;;;21.31;27.89;98659.03;5066216;28;1981;-79
2022/10/22 04:46:39;;;;;;;;;;;;;;;21.09;28.03;98652.88;5032908;28;1305;-79
2022/10/22 04:49:04;;;;;;;;;;;;;;;20.79;28.66;98651.66;5064284;28;1232;-80
2022/10/22 04:51:30;;;;;;;;;;;;;;;21.46;27.49;98662.47;5054074;28;1365;-79
2022/10/22 04:53:55;;;;;;;;;;;;;;;21.38;27.95;98664.59;5080012;28;1156;-79
2022/10/22 04:56:22;;;;;;;;;;;;;;;21.40;27.76;98650.00;5111502;28;790;-79
2022/10/22 04:58:47;;;;;;;;;;;;;;;21.03;28.10;98654.56;5077265;28;954;-79
2022/10/22 05:01:13;;;;;;;;;;;;;;;21.04;28.03;98645.66;5061376;28;1278;-79
2022/10/22 05:03:38;;;;;;;;;;;;;;;21.01;28.29;98645.69;5078694;28;1905;-79
2022/10/22 05:06:04;;;;;;;;;;;;;;;21.19;28.11;98651.91;5077630;28;695;-79
2022/10/22 05:08:29;;;;;;;;;;;;;;;21.32;27.63;98655.78;5077283;28;774;-79
2022/10/22 05:10:55;;;;;;;;;;;;;;;21.19;27.86;98649.09;5078784;28;866;-79
2022/10/22 05:13:20;;;;;;;;;;;;;;;20.90;28.56;98647.88;5077748;28;1078;-79
2022/10/22 05:15:46;;;;;;;;;;;;;;;20.77;28.81;98645.59;5077168;28;727;-79
2022/10/22 05:18:11;;;;;;;;;;;;;;;21.03;28.20;98637.56;5077338;28;974;-79
2022/10/22 05:20:40;;;;;;;;;;;;;;;21.45;27.49;98653.16;5078701;28;782;-79
2022/10/22 05:23:05;;;;;;;;;;;;;;;21.50;27.53;98658.34;5078570;28;1977;-79
2022/10/22 05:25:31;;;;;;;;;;;;;;;21.51;27.72;98664.81;5076516;28;883;-79
2022/10/22 05:28:00;;;;;;;;;;;;;;;21.26;27.79;98662.31;5060647;28;743;-79
2022/10/22 05:30:25;;;;;;;;;;;;;;;20.94;28.22;98669.25;5059410;28;1227;-79
2022/10/22 05:32:51;;;;;;;;;;;;;;;20.71;28.74;98672.75;5060720;28;1102;-79
2022/10/22 05:35:16;;;;;;;;;;;;;;;21.15;28.13;98673.81;5077048;28;723;-79
2022/10/22 05:37:42;;;;;;;;;;;;;;;21.36;27.68;98669.09;5075990;28;974;-79
2022/10/22 05:40:07;;;;;;;;;;;;;;;21.22;27.91;98673.69;5078064;28;711;-80
2022/10/22 05:42:33;;;;;;;;;;;;;;;20.91;28.38;98672.09;5078058;28;1989;-79
2022/10/22 05:44:58;;;;;;;;;;;;;;;20.71;28.73;98660.63;5075996;28;814;-79
2022/10/22 05:47:24;;;;;;;;;;;;;;;21.21;28.39;98655.09;5060215;28;724;-79
2022/10/22 05:49:49;;;;;;;;;;;;;;;21.20;28.27;98653.50;5076864;28;830;-79
2022/10/22 05:52:15;;;;;;;;;;;;;;;21.31;28.21;98657.00;5095766;28;949;-79
2022/10/22 05:54:40;;;;;;;;;;;;;;;21.11;27.94;98655.25;5096212;28;1210;-79
2022/10/22 05:57:05;;;;;;;;;;;;;;;21.26;28.04;98651.81;5078972;28;1278;-79
2022/10/22 05:59:31;;;;;;;;;;;;;;;20.95;28.48;98659.50;5078667;28;710;-79
2022/10/22 06:01:56;;;;;;;;;;;;;;;21.05;28.40;98649.28;5095643;28;809;-79
2022/10/22 06:04:22;;;;;;;;;;;;;;;21.29;28.11;98647.28;5078529;28;1906;-79
2022/10/22 06:06:50;;;;;;;;;;;;;;;21.51;27.88;98650.66;5079131;28;1142;-79
2022/10/22 06:09:16;;;;;;;;;;;;;;;21.18;28.00;98643.84;5078788;28;1191;-79
2022/10/22 06:11:41;;;;;;;;;;;;;;;21.10;28.33;98648.00;5095400;28;923;-79
2022/10/22 06:14:07;;;;;;;;;;;;;;;21.03;28.06;98648.88;5078737;28;759;-79
2022/10/22 06:16:33;;;;;;;;;;;;;;;21.12;28.61;98646.34;5062028;28;1141;-79
2022/10/22 06:19:00;;;;;;;;;;;;;;;21.36;27.79;98660.59;5078698;28;863;-79
2022/10/22 06:21:26;;;;;;;;;;;;;;;21.24;28.00;98662.75;5058380;28;873;-79
2022/10/22 06:23:51;;;;;;;;;;;;;;;20.85;28.75;98654.00;5026250;28;1910;-79
2022/10/22 06:26:17;;;;;;;;;;;;;;;20.85;28.40;98665.31;5054671;28;1073;-79
2022/10/22 06:28:42;;;;;;;;;;;;;;;20.88;28.79;98664.44;5055106;28;786;-79
2022/10/22 06:31:08;;;;;;;;;;;;;;;21.13;28.47;98664.91;5021811;28;875;-79
2022/10/22 06:33:36;;;;;;;;;;;;;;;21.29;28.02;98667.91;5038199;28;724;-79
2022/10/22 06:36:05;;;;;;;;;;;;;;;21.10;28.08;98662.97;5038636;28;945;-79
2022/10/22 06:38:30;;;;;;;;;;;;;;;20.94;28.42;98657.13;5038155;28;1219;-79
2022/10/22 06:41:00;;;;;;;;;;;;;;;20.86;28.74;98655.59;5054734;28;876;-80
2022/10/22 06:43:26;;;;;;;;;;;;;;;21.14;28.28;98655.22;5014728;28;1906;-79
2022/10/22 06:45:51;;;;;;;;;;;;;;;21.14;28.14;98654.41;4998576;28;1400;-79
2022/10/22 06:48:17;;;;;;;;;;;;;;;21.24;28.22;98654.28;4998718;28;1198;-79
2022/10/22 06:50:42;;;;;;;;;;;;;;;20.94;28.44;98654.28;4998757;28;1277;-79
2022/10/22 06:53:08;;;;;;;;;;;;;;;20.97;28.48;98650.59;5046871;28;814;-79
2022/10/22 06:55:34;;;;;;;;;;;;;;;20.84;28.78;98635.44;5037803;28;794;-79
2022/10/22 06:57:59;;;;;;;;;;;;;;;21.19;28.55;98640.59;5021497;28;1093;-79
2022/10/22 07:00:25;;;;;;;;;;;;;;;21.26;28.09;98637.66;5055123;28;849;-79
2022/10/22 07:02:54;;;;;;;;;;;;;;;21.43;28.22;98643.50;5021370;28;1965;-79
2022/10/22 07:05:19;;;;;;;;;;;;;;;20.92;28.68;98634.09;5054643;28;706;-79
2022/10/22 07:07:45;;;;;;;;;;;;;;;21.00;28.62;98635.63;5054793;28;794;-79
2022/10/22 07:10:10;;;;;;;;;;;;;;;20.90;28.39;98634.53;5038133;28;1083;-79
2022/10/22 07:12:36;;;;;;;;;;;;;;;21.11;28.36;98643.94;5038187;28;790;-79
2022/10/22 07:15:01;;;;;;;;;;;;;;;21.24;28.30;98647.78;5065704;28;795;-79
2022/10/22 07:17:27;;;;;;;;;;;;;;;21.46;27.91;98649.09;5041416;28;1186;-79
2022/10/22 07:19:52;;;;;;;;;;;;;;;21.19;28.22;98640.59;5075589;28;747;-79
2022/10/22 07:22:18;;;;;;;;;;;;;;;20.94;28.45;98638.13;5076739;28;798;-79
2022/10/22 07:24:43;;;;;;;;;;;;;;;20.95;28.81;98636.09;5075481;28;1906;-79
2022/10/22 07:27:08;;;;;;;;;;;;;;;21.15;28.33;98634.19;5075565;28;802;-79
2022/10/22 07:29:34;;;;;;;;;;;;;;;21.24;28.25;98637.28;5075912;28;786;-79
2022/10/22 07:31:59;;;;;;;;;;;;;;;21.36;27.96;98644.41;5075496;28;805;-79
2022/10/22 07:38:00;;;;;;;;;;;;;;;20.67;28.98;98640.88;5054326;28;806;-79
2022/10/22 07:40:25;;;;;;;;;;;;;;;21.26;28.31;98634.81;5021585;28;815;-79
2022/10/22 07:42:50;;;;;;;;;;;;;;;21.44;28.04;98623.22;5037603;28;1913;-79
2022/10/22 07:45:16;;;;;;;;;;;;;;;21.30;28.02;98627.09;5054211;28;533;-79
2022/10/22 07:47:42;;;;;;;;;;;;;;;20.96;28.63;98629.19;5054457;28;806;-79
2022/10/22 07:50:08;;;;;;;;;;;;;;;20.86;28.57;98630.16;4998285;28;1164;-79
2022/10/22 07:52:33;;;;;;;;;;;;;;;20.70;28.97;98620.25;4998158;28;925;-79
2022/10/22 07:54:59;;;;;;;;;;;;;;;21.10;28.48;98626.16;5014481;28;1317;-79
2022/10/22 07:57:24;;;;;;;;;;;;;;;21.35;28.16;98641.97;5014871;28;853;-79
2022/10/22 08:00:08;;;;;;;;;;;;;;;21.08;28.66;98626.56;5014365;28;854;-79
2022/10/22 08:02:39;;;;;;;;;;;;;;;21.01;28.78;98628.72;5014386;28;1906;-79
2022/10/22 08:05:05;;;;;;;;;;;;;;;20.91;28.67;98618.34;5041477;28;1268;-79
2022/10/22 08:07:30;;;;;;;;;;;;;;;21.15;28.55;98617.19;5055977;28;787;-79
2022/10/22 08:09:56;;;;;;;;;;;;;;;21.23;28.18;98613.00;5040884;28;917;-79
2022/10/22 08:12:21;;;;;;;;;;;;;;;21.44;28.00;98616.78;5040878;28;835;-79
2022/10/22 08:14:46;;;;;;;;;;;;;;;21.18;28.09;98633.31;5057416;28;978;-79
2022/10/22 08:17:12;;;;;;;;;;;;;;;21.05;28.68;98621.00;5057778;28;842;-79
2022/10/22 08:19:37;;;;;;;;;;;;;;;20.78;29.11;98618.13;5040792;28;747;-79
2022/10/22 08:22:03;;;;;;;;;;;;;;;20.81;29.29;98615.25;5056973;28;811;-79
2022/10/22 08:24:28;;;;;;;;;;;;;;;21.24;28.53;98614.66;5079567;28;1980;-79
2022/10/22 08:26:54;;;;;;;;;;;;;;;21.40;27.90;98610.34;5078627;28;1130;-79
2022/10/22 08:29:21;;;;;;;;;;;;;;;21.07;28.49;98610.03;5078526;28;759;-79
2022/10/22 08:31:47;;;;;;;;;;;;;;;21.02;28.74;98602.03;5060883;28;1013;-80
2022/10/22 08:34:12;;;;;;;;;;;;;;;20.87;29.06;98601.44;5079521;28;703;-79
2022/10/22 08:36:37;;;;;;;;;;;;;;;20.70;29.26;98591.97;5079381;28;707;-79
2022/10/22 08:39:03;;;;;;;;;;;;;;;20.75;29.03;98583.00;5079306;28;820;-79
2022/10/22 08:41:28;;;;;;;;;;;;;;;21.08;28.60;98594.66;5079062;28;810;-79
2022/10/22 08:43:54;;;;;;;;;;;;;;;21.23;28.41;98600.91;5061243;28;1985;-79
2022/10/22 08:46:38;;;;;;;;;;;;;;;21.11;28.50;98585.31;5078069;28;735;-79
2022/10/22 08:49:04;;;;;;;;;;;;;;;20.97;28.67;98586.31;5079352;28;738;-79
2022/10/22 08:55:05;;;;;;;;;;;;;;;21.18;28.36;98579.53;5079020;28;644;-79
2022/10/22 08:57:34;;;;;;;;;;;;;;;21.38;28.05;98584.53;5075085;28;1432;-79
2022/10/22 09:00:04;;;;;;;;;;;;;;;21.22;28.32;98585.16;5078930;28;715;-79
2022/10/22 09:02:33;;;;;;;;;;;;;;;20.94;28.97;98587.19;5077651;28;743;-79
2022/10/22 09:05:05;;;;;;;;;;;;;;;20.92;29.02;98583.97;5077963;28;972;-79
2022/10/22 09:07:30;;;;;;;;;;;;;;;21.10;28.54;98569.56;5077682;28;705;-79
2022/10/22 09:09:56;;;;;;;;;;;;;;;21.17;28.48;98580.78;5111402;28;829;-80
2022/10/22 09:12:21;;;;;;;;;;;;;;;21.23;28.61;98578.25;5061310;28;1125;-79
2022/10/22 09:14:46;;;;;;;;;;;;;;;20.99;28.90;98581.06;5043515;28;1225;-79
2022/10/22 09:17:12;;;;;;;;;;;;;;;20.93;28.91;98576.28;5059474;28;868;-79
2022/10/22 09:19:44;;;;;;;;;;;;;;;20.74;29.07;98580.63;5076277;28;797;-79
2022/10/22 09:22:16;;;;;;;;;;;;;;;21.18;28.46;98582.38;5059442;28;814;-79
2022/10/22 09:24:46;;;;;;;;;;;;;;;21.18;28.56;98576.72;5026461;28;1984;-79
2022/10/22 09:27:18;;;;;;;;;;;;;;;21.43;27.99;98564.22;5059495;28;805;-79
2022/10/22 09:29:44;;;;;;;;;;;;;;;20.97;28.60;98571.38;5075452;28;808;-79
2022/10/22 09:32:09;;;;;;;;;;;;;;;21.14;28.50;98567.50;5059299;28;774;-79
2022/10/22 09:34:35;;;;;;;;;;;;;;;20.88;29.05;98573.94;5059346;28;889;-78
2022/10/22 09:37:01;;;;;;;;;;;;;;;20.99;28.82;98557.63;5076151;28;766;-79
2022/10/22 09:39:27;;;;;;;;;;;;;;;21.33;28.16;98572.44;5055144;28;1333;-79
2022/10/22 09:41:53;;;;;;;;;;;;;;;21.35;28.13;98569.22;5038364;28;870;-79
2022/10/22 09:44:19;;;;;;;;;;;;;;;21.14;28.70;98572.34;5054307;28;1989;-79
2022/10/22 09:46:44;;;;;;;;;;;;;;;20.87;29.01;98567.47;5054605;28;824;-79
2022/10/22 09:49:11;;;;;;;;;;;;;;;20.83;29.21;98560.28;5054546;28;903;-79
2022/10/22 09:51:45;;;;;;;;;;;;;;;21.39;28.08;98547.28;5038162;28;1229;-79
2022/10/22 09:54:14;;;;;;;;;;;;;;;21.58;27.92;98545.75;5038150;28;771;-79
2022/10/22 09:56:40;;;;;;;;;;;;;;;21.06;28.60;98551.84;5038107;28;747;-79
2022/10/22 09:59:15;;;;;;;;;;;;;;;20.93;28.69;98542.34;5037903;28;751;-79
2022/10/22 10:01:41;;;;;;;;;;;;;;;20.90;29.04;98537.56;5037964;28;1110;-79
2022/10/22 10:04:07;;;;;;;;;;;;;;;21.43;28.26;98541.56;5037838;28;1898;-79
2022/10/22 10:06:33;;;;;;;;;;;;;;;21.55;27.95;98546.59;5037556;28;907;-79
2022/10/22 10:09:04;;;;;;;;;;;;;;;21.20;28.22;98540.31;5021327;28;1178;-79
2022/10/22 10:11:56;;;;;;;;;;;;;;;20.97;28.97;98537.44;5059720;28;899;-79
2022/10/22 10:14:33;;;;;;;;;;;;;;;20.84;29.02;98533.63;5016893;28;1400;-79
2022/10/22 10:16:58;;;;;;;;;;;;;;;20.71;29.14;98542.66;5034267;28;870;-79
2022/10/22 10:19:24;;;;;;;;;;;;;;;21.06;28.61;98541.34;5034186;28;1037;-79
2022/10/22 10:22:08;;;;;;;;;;;;;;;21.26;28.39;98544.25;5017788;28;1354;-79
2022/10/22 10:24:44;;;;;;;;;;;;;;;21.10;28.43;98541.28;5033900;28;1906;-79
2022/10/22 10:27:23;;;;;;;;;;;;;;;20.89;29.05;98527.47;5017433;28;877;-79
2022/10/22 10:29:53;;;;;;;;;;;;;;;20.99;28.81;98513.16;5000533;28;1155;-79
2022/10/22 10:32:19;;;;;;;;;;;;;;;21.13;28.54;98514.13;5017397;28;1041;-79
2022/10/22 10:35:01;;;;;;;;;;;;;;;21.22;28.27;98518.03;5033657;28;739;-79
2022/10/22 10:37:31;;;;;;;;;;;;;;;21.28;28.17;98507.81;4999255;28;1012;-79
2022/10/22 10:40:13;;;;;;;;;;;;;;;21.24;28.20;98494.94;5011266;28;866;-79
2022/10/22 10:42:40;;;;;;;;;;;;;;;20.92;28.70;98501.94;4994320;28;1971;-80
2022/10/22 10:45:16;;;;;;;;;;;;;;;20.83;29.17;98484.72;5011122;28;1123;-79
2022/10/22 10:47:41;;;;;;;;;;;;;;;21.13;28.53;98469.66;4979033;28;953;-80
2022/10/22 10:50:27;;;;;;;;;;;;;;;21.34;28.08;98471.34;5018365;28;1218;-79
2022/10/22 10:52:52;;;;;;;;;;;;;;;21.33;28.31;98469.75;5074462;28;1122;-79
2022/10/22 10:55:28;;;;;;;;;;;;;;;21.02;28.31;98426.63;5074747;28;877;-79
2022/10/22 10:58:17;;;;;;;;;;;;;;;21.18;28.67;98457.06;5091942;28;785;-79
2022/10/22 11:00:54;;;;;;;;;;;;;;;20.94;28.92;98456.28;5091588;28;742;-79
2022/10/22 11:03:25;;;;;;;;;;;;;;;21.19;28.40;98453.81;5091747;28;1909;-79
2022/10/22 11:05:57;;;;;;;;;;;;;;;21.25;28.49;98443.59;5091097;28;1150;-79
2022/10/22 11:08:33;;;;;;;;;;;;;;;21.13;28.51;98432.88;5090300;28;726;-79
2022/10/22 11:11:10;;;;;;;;;;;;;;;20.95;28.72;98443.72;5090597;28;845;-79
2022/10/22 11:13:35;;;;;;;;;;;;;;;20.72;29.15;98433.97;5073539;28;769;-79
2022/10/22 11:16:06;;;;;;;;;;;;;;;20.61;29.12;98447.47;5073454;28;797;-79
2022/10/22 11:18:34;;;;;;;;;;;;;;;21.03;28.66;98443.16;5090176;28;790;-79
2022/10/22 11:21:06;;;;;;;;;;;;;;;21.36;28.29;98431.31;5073271;28;731;-79
2022/10/22 11:23:33;;;;;;;;;;;;;;;21.30;28.01;98426.16;5087967;28;1925;-79
2022/10/22 11:25:59;;;;;;;;;;;;;;;20.93;28.78;98420.72;5056172;28;862;-79
2022/10/22 11:28:25;;;;;;;;;;;;;;;20.83;28.99;98414.03;5054170;28;1447;-79
2022/10/22 11:31:09;;;;;;;;;;;;;;;20.70;29.08;98421.50;5054204;28;822;-79
2022/10/22 11:33:47;;;;;;;;;;;;;;;21.21;28.44;98411.72;5080393;28;1248;-79
2022/10/22 11:36:12;;;;;;;;;;;;;;;21.28;28.39;98405.91;5096354;28;766;-79
2022/10/22 11:38:38;;;;;;;;;;;;;;;21.45;27.88;98397.53;5094884;28;723;-79
2022/10/22 11:41:13;;;;;;;;;;;;;;;21.09;28.58;98392.56;5094982;28;774;-79
2022/10/22 11:43:59;;;;;;;;;;;;;;;20.90;29.07;98396.13;5098495;28;1898;-80
2022/10/22 11:46:26;;;;;;;;;;;;;;;21.02;28.92;98393.47;5057216;28;1040;-79
2022/10/22 11:49:01;;;;;;;;;;;;;;;21.08;28.79;98386.06;5057516;28;1038;-79
2022/10/22 11:51:27;;;;;;;;;;;;;;;21.31;28.16;98379.63;5023869;28;1127;-79
2022/10/22 11:53:56;;;;;;;;;;;;;;;21.17;28.33;98377.03;5056716;28;855;-79
2022/10/22 11:56:23;;;;;;;;;;;;;;;20.98;28.69;98380.59;5024035;28;1245;-79
2022/10/22 11:58:49;;;;;;;;;;;;;;;20.87;28.79;98386.47;5057062;28;1057;-79
2022/10/22 12:01:20;;;;;;;;;;;;;;;20.94;28.97;98386.34;5057113;28;826;-79
2022/10/22 12:03:54;;;;;;;;;;;;;;;21.26;28.25;98374.44;5057340;28;1902;-79
2022/10/22 12:06:21;;;;;;;;;;;;;;;21.42;28.03;98378.63;5057774;28;1037;-79
2022/10/22 12:08:56;;;;;;;;;;;;;;;21.26;28.04;98382.91;5041128;28;764;-79
2022/10/22 12:11:24;;;;;;;;;;;;;;;21.13;28.56;98393.25;5058018;28;1111;-79
2022/10/22 12:13:50;;;;;;;;;;;;;;;21.01;28.65;98379.75;5057761;28;837;-79
2022/10/22 12:16:15;;;;;;;;;;;;;;;20.99;28.82;98380.19;5057815;28;907;-79
2022/10/22 12:18:41;;;;;;;;;;;;;;;21.14;28.57;98385.56;5057572;28;1359;-79
2022/10/22 12:21:10;;;;;;;;;;;;;;;21.32;28.19;98375.56;5057243;28;814;-79
2022/10/22 12:23:35;;;;;;;;;;;;;;;21.57;27.70;98371.44;5079672;28;1906;-79
2022/10/22 12:26:02;;;;;;;;;;;;;;;21.54;27.64;98366.63;5097654;28;755;-79
2022/10/22 12:28:27;;;;;;;;;;;;;;;21.22;28.32;98368.03;5097559;28;1373;-79
2022/10/22 12:30:53;;;;;;;;;;;;;;;21.07;28.50;98366.72;5097592;28;1014;-79
2022/10/22 12:33:21;;;;;;;;;;;;;;;20.90;28.73;98379.16;5080793;28;966;-79
2022/10/22 12:35:48;;;;;;;;;;;;;;;20.72;29.27;98363.28;5097469;28;820;-79
2022/10/22 12:38:14;;;;;;;;;;;;;;;20.91;28.82;98364.56;5080424;28;825;-79
2022/10/22 12:44:16;;;;;;;;;;;;;;;21.06;28.72;98371.56;5096968;28;1905;-79
2022/10/22 12:46:41;;;;;;;;;;;;;;;21.13;28.63;98364.19;5097510;28;770;-79
2022/10/22 12:49:09;;;;;;;;;;;;;;;20.93;28.83;98361.31;5082940;28;800;-79
2022/10/22 12:51:35;;;;;;;;;;;;;;;20.87;28.88;98368.69;5098144;28;875;-79
2022/10/22 12:54:08;;;;;;;;;;;;;;;21.30;28.43;98357.41;5097799;28;1212;-79
2022/10/22 12:56:34;;;;;;;;;;;;;;;21.66;27.76;98351.81;5099046;28;945;-79
2022/10/22 12:59:22;;;;;;;;;;;;;;;21.13;28.22;98348.00;5098259;28;754;-79
2022/10/22 13:01:48;;;;;;;;;;;;;;;21.10;28.68;98351.69;5040301;28;1285;-79
2022/10/22 13:04:13;;;;;;;;;;;;;;;21.05;28.48;98349.38;5056753;28;1985;-79
2022/10/22 13:06:42;;;;;;;;;;;;;;;20.99;28.55;98353.94;5056742;28;948;-79
2022/10/22 13:09:10;;;;;;;;;;;;;;;21.39;28.19;98337.00;5056449;28;869;-79
2022/10/22 13:12:03;;;;;;;;;;;;;;;21.55;27.79;98339.91;5016512;28;930;-79
2022/10/22 13:14:36;;;;;;;;;;;;;;;21.30;28.16;98329.91;4997252;28;964;-79
2022/10/22 13:17:03;;;;;;;;;;;;;;;20.88;29.04;98339.16;4981282;28;1087;-79
2022/10/22 13:19:55;;;;;;;;;;;;;;;20.98;28.64;98335.34;4980713;28;1082;-79
2022/10/22 13:22:41;;;;;;;;;;;;;;;20.87;28.93;98348.91;4996780;28;1319;-79
2022/10/22 13:25:15;;;;;;;;;;;;;;;21.20;28.25;98336.56;4996819;28;1989;-79
2022/10/22 13:28:10;;;;;;;;;;;;;;;21.26;28.09;98343.28;4996706;28;1086;-79
2022/10/22 13:30:36;;;;;;;;;;;;;;;21.30;28.00;98334.78;4996699;28;1060;-79
2022/10/22 13:33:02;;;;;;;;;;;;;;;21.10;28.63;98331.91;4964371;28;1129;-79
2022/10/22 13:35:29;;;;;;;;;;;;;;;20.94;28.72;98332.59;4980466;28;1072;-79